createdAt,value
2022-08-21T16:37:14.493Z,23.10
2022-08-21T16:39:53.323Z,23.00
2022-08-21T16:42:26.951Z,23.00
2022-08-21T16:44:57.115Z,22.90
2022-08-21T16:47:27.091Z,22.90
2022-08-21T16:49:55.566Z,22.90
2022-08-21T16:52:25.148Z,22.90
2022-08-21T16:54:53.205Z,23.00
2022-08-21T16:57:21.734Z,23.00
2022-08-21T16:59:50.451Z,22.90
2022-08-21T17:02:30.814Z,22.90
2022-08-21T17:04:58.947Z,22.80
2022-08-21T17:07:28.363Z,22.80
2022-08-21T17:09:56.685Z,22.70
2022-08-21T17:12:25.312Z,22.60
2022-08-21T17:14:53.534Z,22.50
2022-08-21T17:17:21.951Z,22.50
2022-08-21T17:19:50.045Z,22.50
2022-08-21T17:22:18.223Z,22.50
2022-08-21T17:24:47.679Z,22.40
2022-08-21T17:27:15.888Z,22.30
2022-08-21T17:29:44.013Z,22.30
2022-08-21T17:32:20.047Z,22.20
2022-08-21T17:34:48.351Z,22.10
2022-08-21T17:37:16.902Z,22.10
2022-08-21T17:39:45.044Z,22.10
2022-08-21T17:42:15.835Z,22.00
2022-08-21T17:44:47.042Z,21.90
2022-08-21T17:47:15.700Z,21.80
2022-08-21T17:49:43.923Z,21.80
2022-08-21T17:52:12.211Z,21.70
2022-08-21T17:54:41.104Z,21.70
2022-08-21T17:57:10.060Z,21.60
2022-08-21T17:59:39.683Z,21.50
2022-08-21T18:02:12.588Z,21.50
2022-08-21T18:04:50.465Z,21.40
2022-08-21T18:07:32.070Z,21.30
2022-08-21T18:10:01.778Z,21.20
2022-08-21T18:12:31.289Z,21.10
2022-08-21T18:15:03.054Z,21.00
2022-08-21T18:17:33.647Z,20.90
2022-08-21T18:20:02.654Z,20.90
2022-08-21T18:22:30.789Z,20.80
2022-08-21T18:24:58.982Z,20.70
2022-08-21T18:27:29.723Z,20.60
2022-08-21T18:30:02.729Z,20.50
2022-08-21T18:32:32.327Z,20.40
2022-08-21T18:35:03.511Z,20.30
2022-08-21T18:37:32.034Z,20.30
2022-08-21T18:40:00.880Z,20.20
2022-08-21T18:42:35.557Z,20.10
2022-08-21T18:45:13.313Z,20.00
2022-08-21T18:47:47.031Z,19.90
2022-08-21T18:50:19.094Z,19.90
2022-08-21T18:52:52.612Z,19.90
2022-08-21T18:55:23.029Z,20.00
2022-08-21T18:57:52.941Z,20.10
2022-08-21T19:00:27.706Z,20.20
2022-08-21T19:02:56.299Z,20.20
2022-08-21T19:05:25.607Z,20.20
2022-08-21T19:07:56.104Z,20.10
2022-08-21T19:10:28.847Z,20.10
2022-08-21T19:13:00.591Z,20.10
2022-08-21T19:15:31.157Z,20.00
2022-08-21T19:18:00.531Z,20.00
2022-08-21T19:20:34.486Z,19.90
2022-08-21T19:23:05.157Z,19.90
2022-08-21T19:25:35.747Z,19.90
2022-08-21T19:28:11.070Z,19.80
2022-08-21T19:30:47.922Z,19.80
2022-08-21T19:33:26.247Z,19.70
2022-08-21T19:35:54.405Z,19.70
2022-08-21T19:38:22.993Z,19.70
2022-08-21T19:40:52.250Z,19.70
2022-08-21T19:43:22.523Z,19.70
2022-08-21T19:45:56.476Z,19.60
2022-08-21T19:48:26.683Z,19.60
2022-08-21T19:50:55.117Z,19.60
2022-08-21T19:53:23.260Z,19.50
2022-08-21T19:55:51.380Z,19.50
2022-08-21T19:58:34.534Z,19.50
2022-08-21T20:01:16.379Z,19.40
2022-08-21T20:03:54.200Z,19.40
2022-08-21T20:06:25.427Z,19.40
2022-08-21T20:08:56.044Z,19.30
2022-08-21T20:11:31.962Z,19.30
2022-08-21T20:14:02.021Z,19.30
2022-08-21T20:16:32.194Z,19.20
2022-08-21T20:19:03.245Z,19.20
2022-08-21T20:21:32.102Z,19.20
2022-08-21T20:24:15.156Z,19.10
2022-08-21T20:29:37.263Z,19.10
2022-08-21T20:32:12.117Z,19.00
2022-08-21T20:34:41.151Z,18.90
2022-08-21T20:37:13.425Z,18.90
2022-08-21T20:39:50.531Z,18.90
2022-08-21T20:42:18.899Z,18.90
2022-08-21T20:44:47.501Z,18.90
2022-08-21T20:47:17.464Z,18.80
2022-08-21T20:49:53.517Z,18.80
2022-08-21T20:52:26.681Z,18.80
2022-08-21T20:55:02.114Z,18.70
2022-08-21T20:57:43.493Z,18.70
2022-08-21T21:00:16.329Z,18.70
2022-08-21T21:02:53.739Z,18.60
2022-08-21T21:05:28.060Z,18.60
2022-08-21T21:08:13.646Z,18.60
2022-08-21T21:10:51.457Z,18.60
2022-08-21T21:13:26.903Z,18.50
2022-08-21T21:16:01.027Z,18.50
2022-08-21T21:18:37.586Z,18.50
2022-08-21T21:21:19.449Z,18.40
2022-08-21T21:23:57.972Z,18.40
2022-08-21T21:26:35.317Z,18.40
2022-08-21T21:29:13.031Z,18.40
2022-08-21T21:31:42.614Z,18.30
2022-08-21T21:34:17.020Z,18.30
2022-08-21T21:36:56.164Z,18.20
2022-08-21T21:39:36.387Z,18.20
2022-08-21T21:45:22.721Z,18.10
2022-08-21T21:48:12.596Z,18.10
2022-08-21T21:51:01.066Z,18.10
2022-08-21T21:54:05.383Z,18.10
2022-08-21T21:56:48.315Z,18.00
2022-08-21T21:59:42.321Z,18.00
2022-08-21T22:02:27.134Z,18.00
2022-08-21T22:05:07.272Z,17.90
2022-08-21T22:07:44.807Z,17.90
2022-08-21T22:10:30.662Z,17.80
2022-08-21T22:13:26.358Z,17.80
2022-08-21T22:15:56.487Z,17.80
2022-08-21T22:18:32.815Z,17.80
2022-08-21T22:21:05.812Z,17.80
2022-08-21T22:23:43.033Z,17.70
2022-08-21T22:26:18.786Z,17.70
2022-08-21T22:28:51.868Z,17.70
2022-08-21T22:31:24.326Z,17.70
2022-08-21T22:34:17.676Z,17.70
2022-08-21T22:36:55.713Z,17.60
2022-08-21T22:39:38.760Z,17.60
2022-08-21T22:42:13.645Z,17.50
2022-08-21T22:44:53.812Z,17.40
2022-08-21T22:47:26.659Z,17.40
2022-08-21T22:50:03.847Z,17.30
2022-08-21T22:52:38.140Z,17.30
2022-08-21T22:55:25.736Z,17.30
2022-08-21T22:58:12.336Z,17.30
2022-08-21T23:00:53.211Z,17.30
2022-08-21T23:03:32.706Z,17.30
2022-08-21T23:06:13.034Z,17.30
2022-08-21T23:08:44.206Z,17.20
2022-08-21T23:11:20.873Z,17.20
2022-08-21T23:13:54.170Z,17.20
2022-08-21T23:16:47.351Z,17.20
2022-08-21T23:19:38.464Z,17.20
2022-08-21T23:22:28.779Z,17.20
2022-08-21T23:25:13.160Z,17.10
2022-08-21T23:28:04.233Z,17.10
2022-08-21T23:30:44.092Z,17.10
2022-08-21T23:33:41.683Z,17.10
2022-08-21T23:36:45.811Z,17.00
2022-08-21T23:39:36.363Z,17.00
2022-08-21T23:42:30.321Z,17.00
2022-08-21T23:45:14.376Z,17.00
2022-08-21T23:47:58.364Z,16.80
2022-08-21T23:50:35.343Z,16.80
2022-08-21T23:53:22.563Z,16.80
2022-08-21T23:56:21.182Z,16.80
2022-08-21T23:59:10.503Z,16.70
